Newgulf, Texas
Current Conditions -  °F | °C
As of 10:35 AM on Saturday 22 Nov 2014 (Local Time) from KARM Reporting Station
Broken Clouds Broken Clouds  
Wind Chill: 67°   Ceiling: 9000
Heat Index: 67°   Visibility: 10mi
Dew Point: 64°   Wind: 8mph
Humidity: 90%   Direction: 120°ESE
Pressure: 30.04"   Gusts: NA
Location:  29.25°N, 95.9°W
Report Text: KARM 221635Z AUTO 12007KT 10SM BKN090 20/18 A3004 RMK AO2 LTG DSNT N S AND NW T01950178
Loading
Personal Weather Stations






























Interactive Weather Map New forecast layout! Learn more

10-Day Weather Forecast

Advertisements
Track Severe Weather on mobile